createdAt,value
2023-03-18T00:01:13.585Z,50307.19
2023-03-18T00:03:41.972Z,50291.99
2023-03-18T00:06:13.436Z,50307.19
2023-03-18T00:08:42.874Z,50293.99
2023-03-18T00:11:13.286Z,50301.19
2023-03-18T00:13:42.630Z,50300.79
2023-03-18T00:16:12.258Z,50295.20
2023-03-18T00:18:41.889Z,50295.99
2023-03-18T00:21:11.229Z,50290.39
2023-03-18T00:23:40.634Z,50313.18
2023-03-18T00:26:09.959Z,50287.99
2023-03-18T00:28:38.995Z,50287.99
2023-03-18T00:31:10.763Z,50291.20
2023-03-18T00:33:40.944Z,50307.99
2023-03-18T00:36:14.046Z,50301.99
2023-03-18T00:38:44.504Z,50296.39
2023-03-18T00:41:16.392Z,50314.79
2023-03-18T00:43:49.675Z,50310.79
2023-03-18T00:46:28.713Z,50302.79
2023-03-18T00:49:00.505Z,50323.58
2023-03-18T00:51:31.685Z,50299.99
2023-03-18T00:54:07.419Z,50307.59
2023-03-18T00:56:37.836Z,50297.59
2023-03-18T00:59:08.191Z,50301.59
2023-03-18T01:01:37.381Z,50304.39
2023-03-18T01:04:06.647Z,50305.99
2023-03-18T01:06:37.627Z,50312.79
2023-03-18T01:09:10.119Z,50290.79
2023-03-18T01:11:38.376Z,50300.39
2023-03-18T01:14:06.710Z,50304.79
2023-03-18T01:16:35.046Z,50302.39
2023-03-18T01:19:04.606Z,50322.38
2023-03-18T01:21:33.960Z,50310.39
2023-03-18T01:24:04.511Z,50315.99
2023-03-18T01:26:34.433Z,50293.20
2023-03-18T01:29:03.924Z,50295.59
2023-03-18T01:31:34.967Z,50303.19
2023-03-18T01:34:07.585Z,50305.59
2023-03-18T01:36:48.679Z,50305.19
2023-03-18T01:39:18.078Z,50309.59
2023-03-18T01:41:46.463Z,50312.39
2023-03-18T01:44:21.348Z,50303.19
2023-03-18T01:46:51.495Z,50306.79
2023-03-18T01:49:24.287Z,50316.79
2023-03-18T01:52:07.104Z,50307.99
2023-03-18T01:54:41.809Z,50316.79
2023-03-18T01:57:10.713Z,50314.39
2023-03-18T01:59:42.043Z,50297.99
2023-03-18T02:02:14.729Z,50309.18
2023-03-18T02:04:47.801Z,50313.18
2023-03-18T02:07:25.904Z,50309.59
2023-03-18T02:09:57.122Z,50315.18
2023-03-18T02:12:33.539Z,50325.58
2023-03-18T02:15:06.218Z,50325.58
2023-03-18T02:17:40.297Z,50321.98
2023-03-18T02:20:32.411Z,50321.58
2023-03-18T02:23:19.440Z,50312.38
2023-03-18T02:25:50.567Z,50326.38
2023-03-18T02:28:28.574Z,50329.18
2023-03-18T02:31:01.620Z,50317.59
2023-03-18T02:33:35.535Z,50319.98
2023-03-18T02:36:07.850Z,50325.18
2023-03-18T02:38:43.393Z,50308.39
2023-03-18T02:41:19.145Z,50300.79
2023-03-18T02:43:50.212Z,50309.19
2023-03-18T02:46:34.420Z,50321.59
2023-03-18T02:49:04.965Z,50329.58
2023-03-18T02:51:37.126Z,50317.98
2023-03-18T02:54:13.030Z,50313.18
2023-03-18T02:56:43.915Z,50310.38
2023-03-18T02:59:13.290Z,50309.19
2023-03-18T03:01:44.642Z,50315.99
2023-03-18T03:04:13.113Z,50319.98
2023-03-18T03:06:42.966Z,50326.38
2023-03-18T03:09:16.395Z,50333.58
2023-03-18T03:11:47.142Z,50329.58
2023-03-18T03:14:18.768Z,50330.77
2023-03-18T03:16:48.692Z,50328.38
2023-03-18T03:19:19.613Z,50331.57
2023-03-18T03:21:47.775Z,50327.98
2023-03-18T03:24:16.574Z,50327.18
2023-03-18T03:26:44.817Z,50327.18
2023-03-18T03:29:13.033Z,50340.78
2023-03-18T03:31:42.634Z,50340.77
2023-03-18T03:34:10.958Z,50331.98
2023-03-18T03:36:39.885Z,50345.18
2023-03-18T03:39:08.084Z,50321.98
2023-03-18T03:41:36.704Z,50358.77
2023-03-18T03:44:07.512Z,50320.38
2023-03-18T03:46:37.645Z,50355.17
2023-03-18T03:49:06.917Z,50343.18
2023-03-18T03:51:35.234Z,50341.57
2023-03-18T03:54:03.881Z,50335.58
2023-03-18T03:56:32.470Z,50329.58
2023-03-18T03:59:00.738Z,50321.18
2023-03-18T04:01:47.927Z,50346.77
2023-03-18T04:04:17.076Z,50341.98
2023-03-18T04:06:45.499Z,50319.59
2023-03-18T04:09:13.934Z,50334.38
2023-03-18T04:11:43.058Z,50331.98
2023-03-18T04:14:11.784Z,50356.38
2023-03-18T04:16:40.741Z,50327.98
2023-03-18T04:19:10.335Z,50339.98
2023-03-18T04:21:39.057Z,50343.18
2023-03-18T04:24:09.261Z,50353.18
2023-03-18T04:26:38.147Z,50339.57
2023-03-18T04:29:06.995Z,50345.98
2023-03-18T04:31:35.412Z,50346.77
2023-03-18T04:34:03.994Z,50335.98
2023-03-18T04:36:32.349Z,50333.58
2023-03-18T04:39:00.627Z,50359.57
2023-03-18T04:41:29.026Z,50343.98
2023-03-18T04:43:58.428Z,50355.17
2023-03-18T04:46:33.380Z,50356.38
2023-03-18T04:49:01.651Z,50337.18
2023-03-18T04:51:30.509Z,50354.77
2023-03-18T04:53:59.122Z,50340.77
2023-03-18T04:56:31.492Z,50357.98
2023-03-18T04:58:59.953Z,50366.37
2023-03-18T05:01:32.112Z,50335.98
2023-03-18T05:04:00.445Z,50341.18
2023-03-18T05:06:37.521Z,50341.57
2023-03-18T05:09:10.073Z,50340.78
2023-03-18T05:11:38.488Z,50354.38
2023-03-18T05:14:33.102Z,50346.77
2023-03-18T05:17:02.650Z,50355.57
2023-03-18T05:19:31.231Z,50344.38
2023-03-18T05:22:04.416Z,50335.98
2023-03-18T05:24:33.209Z,50343.18
2023-03-18T05:27:01.669Z,50334.38
2023-03-18T05:29:34.479Z,50340.38
2023-03-18T05:32:14.955Z,50343.98
2023-03-18T05:34:43.582Z,50333.58
2023-03-18T05:37:14.211Z,50343.18
2023-03-18T05:39:47.021Z,50350.77
2023-03-18T05:42:17.417Z,50340.77
2023-03-18T05:44:45.848Z,50327.59
2023-03-18T05:47:15.390Z,50343.18
2023-03-18T05:50:04.922Z,50353.97
2023-03-18T05:52:36.515Z,50314.79
2023-03-18T05:55:06.368Z,50320.79
2023-03-18T05:57:37.337Z,50319.59
2023-03-18T06:00:09.197Z,50321.98
2023-03-18T06:02:50.824Z,50326.38
2023-03-18T06:05:19.301Z,50332.38
2023-03-18T06:07:48.539Z,50323.59
2023-03-18T06:10:18.356Z,50336.78
2023-03-18T06:12:47.983Z,50322.38
2023-03-18T06:15:19.263Z,50333.58
2023-03-18T06:17:48.814Z,50328.78
2023-03-18T06:20:18.971Z,50320.38
2023-03-18T06:22:51.951Z,50317.59
2023-03-18T06:25:21.971Z,50315.99
2023-03-18T06:27:51.176Z,50313.19
2023-03-18T06:30:22.209Z,50301.59
2023-03-18T06:32:50.923Z,50314.79
2023-03-18T06:35:19.688Z,50302.39
2023-03-18T06:37:48.753Z,50310.39
2023-03-18T06:40:17.652Z,50313.99
2023-03-18T06:42:46.689Z,50313.58
2023-03-18T06:45:27.250Z,50303.99
2023-03-18T06:48:07.065Z,50309.99
2023-03-18T06:50:39.854Z,50309.19
2023-03-18T06:53:12.922Z,50304.79
2023-03-18T06:55:41.650Z,50311.59
2023-03-18T06:58:10.725Z,50300.79
2023-03-18T07:00:48.896Z,50291.20
2023-03-18T07:03:23.353Z,50304.79
2023-03-18T07:05:53.452Z,50310.79
2023-03-18T07:08:21.957Z,50310.79
2023-03-18T07:10:54.699Z,50322.38
2023-03-18T07:13:25.430Z,50314.38
2023-03-18T07:15:56.903Z,50306.39
2023-03-18T07:18:25.535Z,50308.79
2023-03-18T07:20:53.815Z,50298.39
2023-03-18T07:23:23.782Z,50316.79
2023-03-18T07:25:52.254Z,50292.79
2023-03-18T07:28:21.280Z,50311.99
2023-03-18T07:30:52.438Z,50315.99
2023-03-18T07:33:22.468Z,50299.99
2023-03-18T07:35:51.441Z,50309.59
2023-03-18T07:38:20.514Z,50306.39
2023-03-18T07:40:48.772Z,50293.99
2023-03-18T07:43:17.532Z,50308.39
2023-03-18T07:45:45.768Z,50302.79
2023-03-18T07:48:16.570Z,50317.98
2023-03-18T07:50:45.221Z,50309.99
2023-03-18T07:53:15.611Z,50309.59
2023-03-18T07:55:46.465Z,50307.59
2023-03-18T07:58:16.935Z,50310.38
2023-03-18T08:00:45.499Z,50313.59
2023-03-18T08:03:14.486Z,50308.79
2023-03-18T08:05:42.787Z,50316.79
2023-03-18T08:08:16.896Z,50301.59
2023-03-18T08:10:45.243Z,50311.59
2023-03-18T08:13:13.543Z,50314.79
2023-03-18T08:15:44.784Z,50310.79
2023-03-18T08:18:12.934Z,50319.58
2023-03-18T08:20:41.894Z,50305.99
2023-03-18T08:23:11.106Z,50301.59
2023-03-18T08:25:39.352Z,50316.39
2023-03-18T08:28:08.175Z,50311.19
2023-03-18T08:30:39.567Z,50308.38
2023-03-18T08:33:08.974Z,50315.99
2023-03-18T08:35:41.906Z,50318.39
2023-03-18T08:38:10.182Z,50311.59
2023-03-18T08:40:41.465Z,50309.99
2023-03-18T08:43:10.032Z,50296.39
2023-03-18T08:45:39.332Z,50291.20
2023-03-18T08:48:08.094Z,50311.18
2023-03-18T08:50:37.425Z,50325.98
2023-03-18T08:53:05.922Z,50311.19
2023-03-18T08:55:37.398Z,50304.79
2023-03-18T08:58:07.816Z,50321.98
2023-03-18T09:00:41.961Z,50317.59
2023-03-18T09:03:11.594Z,50307.19
2023-03-18T09:05:40.565Z,50299.19
2023-03-18T09:08:09.391Z,50321.98
2023-03-18T09:10:37.751Z,50289.60
2023-03-18T09:13:06.661Z,50317.59
2023-03-18T09:15:35.211Z,50319.18
2023-03-18T09:18:11.674Z,50300.39
2023-03-18T09:20:41.720Z,50318.79
2023-03-18T09:23:12.612Z,50307.99
2023-03-18T09:25:44.888Z,50299.19
2023-03-18T09:28:14.639Z,50310.79
2023-03-18T09:30:43.853Z,50315.59
2023-03-18T09:33:12.359Z,50329.18
2023-03-18T09:35:41.380Z,50318.38
2023-03-18T09:38:18.048Z,50314.79
2023-03-18T09:41:03.516Z,50310.79
2023-03-18T09:43:48.206Z,50312.38
2023-03-18T09:46:28.509Z,50298.39
2023-03-18T09:49:02.462Z,50303.99
2023-03-18T09:51:50.601Z,50315.59
2023-03-18T09:54:36.671Z,50303.59
2023-03-18T09:57:11.541Z,50315.18
2023-03-18T09:59:46.201Z,50299.19
2023-03-18T10:02:27.221Z,50318.38
2023-03-18T10:05:02.193Z,50315.18
2023-03-18T10:07:35.587Z,50308.79
2023-03-18T10:10:28.060Z,50313.59
2023-03-18T10:13:27.704Z,50311.99
2023-03-18T10:16:00.327Z,50316.78
2023-03-18T10:18:36.377Z,50303.19
2023-03-18T10:21:22.297Z,50303.99
2023-03-18T10:24:02.984Z,50327.98
2023-03-18T10:26:46.372Z,50317.98
2023-03-18T10:29:32.305Z,50326.38
2023-03-18T10:32:15.599Z,50310.39
2023-03-18T10:34:54.189Z,50310.39
2023-03-18T10:37:58.052Z,50308.39
2023-03-18T10:40:29.491Z,50303.19
2023-03-18T10:42:57.746Z,50315.19
2023-03-18T10:45:32.227Z,50309.98
2023-03-18T10:48:09.066Z,50307.99
2023-03-18T10:50:43.179Z,50307.19
2023-03-18T10:53:28.418Z,50311.19
2023-03-18T10:56:04.663Z,50312.38
2023-03-18T10:58:34.106Z,50296.39
2023-03-18T11:01:02.546Z,50297.59
2023-03-18T11:03:35.079Z,50309.18
2023-03-18T11:06:08.579Z,50295.59
2023-03-18T11:08:39.834Z,50299.59
2023-03-18T11:11:29.314Z,50309.19
2023-03-18T11:13:58.289Z,50318.38
2023-03-18T11:16:40.317Z,50315.19
2023-03-18T11:19:27.432Z,50317.98
2023-03-18T11:22:25.207Z,50309.59
2023-03-18T11:25:12.159Z,50307.59
2023-03-18T11:27:42.209Z,50314.38
2023-03-18T11:30:35.668Z,50297.59
2023-03-18T11:33:12.069Z,50328.78
2023-03-18T11:35:44.083Z,50324.38
2023-03-18T11:38:19.127Z,50319.98
2023-03-18T11:40:47.657Z,50317.98
2023-03-18T11:43:22.153Z,50308.39
2023-03-18T11:46:09.845Z,50317.59
2023-03-18T11:48:41.498Z,50319.18
2023-03-18T11:51:24.104Z,50314.38
2023-03-18T11:54:14.436Z,50318.79
2023-03-18T11:56:42.580Z,50313.19
2023-03-18T11:59:45.712Z,50304.79
2023-03-18T12:02:25.883Z,50315.59
2023-03-18T12:05:52.436Z,50313.19
2023-03-18T12:08:20.959Z,50317.98
2023-03-18T12:11:07.696Z,50320.79
2023-03-18T12:14:05.784Z,50327.98
2023-03-18T12:17:12.841Z,50317.99
2023-03-18T12:20:13.816Z,50316.39
2023-03-18T12:23:04.576Z,50320.79
2023-03-18T12:25:38.029Z,50346.38
2023-03-18T12:28:33.146Z,50323.59
2023-03-18T12:31:10.468Z,50324.38
2023-03-18T12:33:58.251Z,50327.58
2023-03-18T12:36:51.364Z,50314.79
2023-03-18T12:39:58.536Z,50321.18
2023-03-18T12:42:50.091Z,50322.78
2023-03-18T12:45:27.010Z,50324.38
2023-03-18T12:48:10.058Z,50306.79
2023-03-18T12:50:51.999Z,50322.38
2023-03-18T12:53:33.586Z,50320.79
2023-03-18T12:56:10.157Z,50321.18
2023-03-18T12:58:44.325Z,50311.59
2023-03-18T13:01:32.668Z,50331.98
2023-03-18T13:04:07.654Z,50311.59
2023-03-18T13:06:47.990Z,50308.79
2023-03-18T13:09:21.179Z,50327.98
2023-03-18T13:12:09.790Z,50332.38
2023-03-18T13:14:50.651Z,50315.18
2023-03-18T13:17:30.170Z,50316.39
2023-03-18T13:20:10.080Z,50320.38
2023-03-18T13:22:46.241Z,50319.98
2023-03-18T13:25:34.485Z,50321.98
2023-03-18T13:28:30.589Z,50323.58
2023-03-18T13:31:16.920Z,50331.18
2023-03-18T13:34:09.872Z,50323.18
2023-03-18T13:37:05.500Z,50318.38
2023-03-18T13:40:09.814Z,50339.18
2023-03-18T13:42:40.632Z,50323.58
2023-03-18T13:45:09.063Z,50323.59
2023-03-18T13:47:41.550Z,50311.99
2023-03-18T13:50:19.103Z,50339.58
2023-03-18T13:52:49.308Z,50329.98
2023-03-18T13:55:25.367Z,50334.38
2023-03-18T13:58:28.361Z,50327.98
2023-03-18T14:00:57.080Z,50321.58
2023-03-18T14:03:37.510Z,50338.77
2023-03-18T14:06:08.908Z,50321.98
2023-03-18T14:08:42.433Z,50322.79
2023-03-18T14:11:17.228Z,50328.78
2023-03-18T14:14:00.854Z,50319.98
2023-03-18T14:16:38.052Z,50322.78
2023-03-18T14:19:19.259Z,50322.78
2023-03-18T14:21:53.653Z,50330.38
2023-03-18T14:24:26.340Z,50307.59
2023-03-18T14:27:03.780Z,50312.79
2023-03-18T14:29:44.043Z,50337.58
2023-03-18T14:32:39.424Z,50335.18
2023-03-18T14:35:17.325Z,50307.99
2023-03-18T14:38:13.171Z,50335.58
2023-03-18T14:40:46.092Z,50337.98
2023-03-18T14:43:30.688Z,50340.78
2023-03-18T14:46:02.903Z,50340.77
2023-03-18T14:48:34.729Z,50341.18
2023-03-18T14:51:27.696Z,50330.79
2023-03-18T14:54:07.015Z,50325.58
2023-03-18T14:56:43.020Z,50331.58
2023-03-18T14:59:17.686Z,50337.98
2023-03-18T15:01:51.598Z,50311.59
2023-03-18T15:04:26.371Z,50332.78
2023-03-18T15:07:00.624Z,50326.78
2023-03-18T15:09:32.756Z,50325.58
2023-03-18T15:12:24.525Z,50331.58
2023-03-18T15:14:52.899Z,50325.98
2023-03-18T15:17:24.633Z,50320.78
2023-03-18T15:19:59.903Z,50318.78
2023-03-18T15:22:31.830Z,50327.98
2023-03-18T15:25:08.556Z,50329.58
2023-03-18T15:27:37.571Z,50326.38
2023-03-18T15:30:23.203Z,50317.19
2023-03-18T15:33:01.583Z,50331.98
2023-03-18T15:35:32.212Z,50345.98
2023-03-18T15:38:03.390Z,50319.98
2023-03-18T15:40:35.525Z,50323.58
2023-03-18T15:43:18.426Z,50347.98
2023-03-18T15:46:01.585Z,50322.38
2023-03-18T15:48:33.382Z,50330.78
2023-03-18T15:51:05.138Z,50313.18
2023-03-18T15:53:43.381Z,50314.39
2023-03-18T15:56:33.339Z,50333.98
2023-03-18T15:59:14.683Z,50341.18
2023-03-18T16:01:43.446Z,50350.37
2023-03-18T16:04:16.599Z,50356.38
2023-03-18T16:06:45.000Z,50334.38
2023-03-18T16:09:20.976Z,50346.38
2023-03-18T16:11:57.509Z,50338.38
2023-03-18T16:14:37.725Z,50345.57
2023-03-18T16:17:06.056Z,50335.98
2023-03-18T16:19:34.481Z,50339.58
2023-03-18T16:22:03.137Z,50327.58
2023-03-18T16:24:32.239Z,50339.18
2023-03-18T16:27:01.895Z,50332.78
2023-03-18T16:29:32.988Z,50328.78
2023-03-18T16:32:01.296Z,50341.98
2023-03-18T16:34:29.576Z,50327.18
2023-03-18T16:36:58.101Z,50337.58
2023-03-18T16:39:34.091Z,50323.58
2023-03-18T16:42:06.476Z,50325.58
2023-03-18T16:44:35.782Z,50326.78
2023-03-18T16:47:04.215Z,50339.18
2023-03-18T16:49:34.687Z,50337.98
2023-03-18T16:52:03.647Z,50325.18
2023-03-18T16:54:33.685Z,50333.18
2023-03-18T16:57:04.560Z,50329.58
2023-03-18T16:59:38.573Z,50319.18
2023-03-18T17:02:29.095Z,50335.58
2023-03-18T17:04:57.528Z,50347.18
2023-03-18T17:07:27.602Z,50328.38
2023-03-18T17:09:56.155Z,50338.78
2023-03-18T17:12:25.122Z,50341.18
2023-03-18T17:14:55.807Z,50338.38
2023-03-18T17:17:36.071Z,50338.77
2023-03-18T17:20:15.590Z,50339.98
2023-03-18T17:22:44.569Z,50339.18
2023-03-18T17:25:16.323Z,50334.78
2023-03-18T17:27:46.030Z,50346.78
2023-03-18T17:30:37.172Z,50325.98
2023-03-18T17:33:20.792Z,50322.78
2023-03-18T17:35:49.602Z,50319.18
2023-03-18T17:38:18.109Z,50326.38
2023-03-18T17:40:48.318Z,50319.99
2023-03-18T17:43:22.627Z,50342.38
2023-03-18T17:45:51.045Z,50319.59
2023-03-18T17:48:22.016Z,50328.78
2023-03-18T17:50:56.278Z,50331.98
2023-03-18T17:53:27.630Z,50343.18
2023-03-18T17:55:57.052Z,50324.38
2023-03-18T17:58:28.516Z,50334.78
2023-03-18T18:01:06.521Z,50338.38
2023-03-18T18:03:38.924Z,50330.78
2023-03-18T18:06:10.271Z,50335.98
2023-03-18T18:08:41.692Z,50349.57
2023-03-18T18:11:27.236Z,50327.18
2023-03-18T18:14:00.817Z,50332.78
2023-03-18T18:16:29.325Z,50341.18
2023-03-18T18:18:57.900Z,50324.78
2023-03-18T18:21:26.580Z,50332.38
2023-03-18T18:23:54.804Z,50339.58
2023-03-18T18:26:23.227Z,50347.57
2023-03-18T18:28:52.831Z,50310.79
2023-03-18T18:31:23.769Z,50315.59
2023-03-18T18:33:52.708Z,50349.57
2023-03-18T18:36:21.637Z,50341.18
2023-03-18T18:38:50.041Z,50343.98
2023-03-18T18:41:18.307Z,50339.18
2023-03-18T18:43:49.298Z,50341.57
2023-03-18T18:46:18.548Z,50343.57
2023-03-18T18:48:48.932Z,50327.18
2023-03-18T18:51:20.076Z,50340.38
2023-03-18T18:53:53.662Z,50350.77
2023-03-18T18:56:39.249Z,50341.58
2023-03-18T18:59:30.945Z,50335.98
2023-03-18T19:02:00.917Z,50334.38
2023-03-18T19:04:29.538Z,50326.79
2023-03-18T19:07:06.724Z,50338.38
2023-03-18T19:09:36.245Z,50354.37
2023-03-18T19:12:15.285Z,50333.98
2023-03-18T19:14:43.702Z,50347.98
2023-03-18T19:17:16.308Z,50357.17
2023-03-18T19:19:46.019Z,50339.18
2023-03-18T19:22:19.751Z,50335.58
2023-03-18T19:24:51.415Z,50329.98
2023-03-18T19:27:27.883Z,50327.58
2023-03-18T19:29:59.303Z,50334.78
2023-03-18T19:32:28.237Z,50331.98
2023-03-18T19:34:59.345Z,50337.18
2023-03-18T19:37:31.202Z,50327.58
2023-03-18T19:40:03.828Z,50346.38
2023-03-18T19:42:34.032Z,50343.18
2023-03-18T19:45:02.272Z,50345.98
2023-03-18T19:47:32.841Z,50349.18
2023-03-18T19:50:01.638Z,50352.37
2023-03-18T19:52:30.737Z,50324.38
2023-03-18T19:54:59.392Z,50343.18
2023-03-18T19:57:30.546Z,50330.78
2023-03-18T20:00:01.008Z,50339.18
2023-03-18T20:02:34.478Z,50351.18
2023-03-18T20:05:15.047Z,50363.97
2023-03-18T20:07:43.390Z,50331.18
2023-03-18T20:10:14.982Z,50323.18
2023-03-18T20:12:51.902Z,50339.98
2023-03-18T20:15:23.065Z,50331.18
2023-03-18T20:17:52.824Z,50346.38
2023-03-18T20:20:28.592Z,50352.38
2023-03-18T20:23:01.998Z,50340.77
2023-03-18T20:25:41.432Z,50327.18
2023-03-18T20:28:23.857Z,50346.77
2023-03-18T20:30:56.493Z,50339.58
2023-03-18T20:33:24.922Z,50350.38
2023-03-18T20:35:54.573Z,50335.18
2023-03-18T20:38:52.477Z,50348.38
2023-03-18T20:41:22.048Z,50333.58
2023-03-18T20:43:51.281Z,50336.77
2023-03-18T20:46:23.775Z,50345.98
2023-03-18T20:48:56.025Z,50343.18
2023-03-18T20:51:32.480Z,50332.78
2023-03-18T20:54:00.920Z,50339.18
2023-03-18T20:56:32.639Z,50327.59
2023-03-18T20:59:01.478Z,50335.98
2023-03-18T21:01:32.067Z,50346.38
2023-03-18T21:04:02.600Z,50345.18
2023-03-18T21:06:31.420Z,50337.98
2023-03-18T21:08:59.561Z,50348.77
2023-03-18T21:11:33.533Z,50348.77
2023-03-18T21:14:04.648Z,50341.98
2023-03-18T21:16:37.215Z,50349.57
2023-03-18T21:19:08.535Z,50334.78
2023-03-18T21:21:39.869Z,50327.98
2023-03-18T21:24:25.016Z,50339.57
2023-03-18T21:27:04.199Z,50332.38
2023-03-18T21:29:33.633Z,50339.18
2023-03-18T21:32:02.816Z,50348.77
2023-03-18T21:34:33.175Z,50327.98
2023-03-18T21:37:01.357Z,50345.57
2023-03-18T21:39:30.104Z,50352.77
2023-03-18T21:41:58.300Z,50355.17
2023-03-18T21:44:26.520Z,50355.97
2023-03-18T21:46:54.937Z,50333.58
2023-03-18T21:49:23.401Z,50343.98
2023-03-18T21:51:54.617Z,50350.38
2023-03-18T21:54:26.051Z,50347.57
2023-03-18T21:56:55.461Z,50335.18
2023-03-18T21:59:23.695Z,50331.18
2023-03-18T22:01:54.808Z,50347.57
2023-03-18T22:04:24.387Z,50332.78
2023-03-18T22:06:52.853Z,50341.57
2023-03-18T22:09:21.108Z,50345.18
2023-03-18T22:11:49.346Z,50356.77
2023-03-18T22:14:21.017Z,50335.98
2023-03-18T22:16:49.259Z,50345.98
2023-03-18T22:19:17.687Z,50338.78
2023-03-18T22:21:46.119Z,50351.97
2023-03-18T22:24:14.714Z,50336.77
2023-03-18T22:26:42.899Z,50353.98
2023-03-18T22:29:11.091Z,50341.98
2023-03-18T22:31:40.606Z,50347.98
2023-03-18T22:34:22.175Z,50332.77
2023-03-18T22:36:50.409Z,50357.98
2023-03-18T22:39:18.594Z,50341.98
2023-03-18T22:41:46.745Z,50337.18
2023-03-18T22:44:22.926Z,50352.38
2023-03-18T22:46:51.128Z,50346.38
2023-03-18T22:49:19.285Z,50357.18
2023-03-18T22:51:47.489Z,50335.58
2023-03-18T22:54:19.151Z,50346.38
2023-03-18T22:56:47.852Z,50342.77
2023-03-18T22:59:16.073Z,50349.57
2023-03-18T23:01:44.868Z,50349.57
2023-03-18T23:04:13.350Z,50321.18
2023-03-18T23:06:43.410Z,50346.38
2023-03-18T23:09:12.408Z,50356.38
2023-03-18T23:11:40.650Z,50347.57
2023-03-18T23:14:12.175Z,50348.77
2023-03-18T23:16:40.523Z,50349.97
2023-03-18T23:19:08.739Z,50354.38
2023-03-18T23:21:36.962Z,50341.98
2023-03-18T23:24:05.478Z,50342.77
2023-03-18T23:26:33.734Z,50337.57
2023-03-18T23:29:02.997Z,50339.57
2023-03-18T23:31:32.220Z,50353.98
2023-03-18T23:34:01.055Z,50339.57
2023-03-18T23:36:29.307Z,50357.17
2023-03-18T23:38:57.467Z,50345.57
2023-03-18T23:41:25.687Z,50359.17
2023-03-18T23:43:53.902Z,50355.57
2023-03-18T23:46:22.169Z,50359.57
2023-03-18T23:48:50.573Z,50328.38
2023-03-18T23:51:18.781Z,50354.77
2023-03-18T23:53:47.099Z,50341.98
2023-03-18T23:56:17.356Z,50346.38
2023-03-18T23:58:45.913Z,50346.77
